sensor_id;sensor_type;location;lat;lon;timestamp;P1;durP1;ratioP1;P2;durP2;ratioP2
48813;SDS011;34634;44.108;3.074;2023-01-31T00:00:11;17.40;;;9.48;;
48813;SDS011;34634;44.108;3.074;2023-01-31T00:02:37;15.75;;;9.55;;
48813;SDS011;34634;44.108;3.074;2023-01-31T00:05:04;13.40;;;8.73;;
48813;SDS011;34634;44.108;3.074;2023-01-31T00:07:30;16.75;;;10.10;;
48813;SDS011;34634;44.108;3.074;2023-01-31T00:09:57;16.23;;;9.43;;
48813;SDS011;34634;44.108;3.074;2023-01-31T00:12:23;15.57;;;9.38;;
48813;SDS011;34634;44.108;3.074;2023-01-31T00:14:49;31.65;;;12.63;;
48813;SDS011;34634;44.108;3.074;2023-01-31T00:17:15;26.83;;;12.10;;
48813;SDS011;34634;44.108;3.074;2023-01-31T00:19:42;16.42;;;8.90;;
48813;SDS011;34634;44.108;3.074;2023-01-31T00:22:08;15.48;;;8.73;;
48813;SDS011;34634;44.108;3.074;2023-01-31T00:24:34;23.40;;;10.32;;
48813;SDS011;34634;44.108;3.074;2023-01-31T00:27:01;60.65;;;18.45;;
48813;SDS011;34634;44.108;3.074;2023-01-31T00:29:27;33.50;;;15.77;;
48813;SDS011;34634;44.108;3.074;2023-01-31T00:31:53;21.77;;;12.15;;
48813;SDS011;34634;44.108;3.074;2023-01-31T00:34:20;16.17;;;9.52;;
48813;SDS011;34634;44.108;3.074;2023-01-31T00:36:46;16.60;;;9.38;;
48813;SDS011;34634;44.108;3.074;2023-01-31T00:39:12;15.85;;;9.25;;
48813;SDS011;34634;44.108;3.074;2023-01-31T00:41:39;21.02;;;10.75;;
48813;SDS011;34634;44.108;3.074;2023-01-31T00:44:05;57.40;;;20.20;;
48813;SDS011;34634;44.108;3.074;2023-01-31T00:46:31;58.08;;;20.70;;
48813;SDS011;34634;44.108;3.074;2023-01-31T00:48:58;43.65;;;17.45;;
48813;SDS011;34634;44.108;3.074;2023-01-31T00:51:26;36.67;;;14.07;;
48813;SDS011;34634;44.108;3.074;2023-01-31T00:53:52;30.30;;;12.88;;
48813;SDS011;34634;44.108;3.074;2023-01-31T00:56:20;29.48;;;12.55;;
48813;SDS011;34634;44.108;3.074;2023-01-31T00:58:47;44.58;;;15.15;;
48813;SDS011;34634;44.108;3.074;2023-01-31T01:01:15;31.77;;;13.95;;
48813;SDS011;34634;44.108;3.074;2023-01-31T01:03:42;28.13;;;12.25;;
48813;SDS011;34634;44.108;3.074;2023-01-31T01:06:09;21.00;;;10.73;;
48813;SDS011;34634;44.108;3.074;2023-01-31T01:08:36;22.42;;;11.73;;
48813;SDS011;34634;44.108;3.074;2023-01-31T01:11:08;20.40;;;10.05;;
48813;SDS011;34634;44.108;3.074;2023-01-31T01:13:34;15.50;;;8.45;;
48813;SDS011;34634;44.108;3.074;2023-01-31T01:16:05;19.02;;;9.90;;
48813;SDS011;34634;44.108;3.074;2023-01-31T01:18:32;17.90;;;9.18;;
48813;SDS011;34634;44.108;3.074;2023-01-31T01:21:06;18.75;;;9.50;;
48813;SDS011;34634;44.108;3.074;2023-01-31T01:23:33;18.63;;;9.90;;
48813;SDS011;34634;44.108;3.074;2023-01-31T01:25:59;14.15;;;7.68;;
48813;SDS011;34634;44.108;3.074;2023-01-31T01:28:26;21.65;;;11.35;;
48813;SDS011;34634;44.108;3.074;2023-01-31T01:30:52;14.40;;;7.47;;
48813;SDS011;34634;44.108;3.074;2023-01-31T01:33:18;11.77;;;7.32;;
48813;SDS011;34634;44.108;3.074;2023-01-31T01:35:45;14.20;;;7.63;;
48813;SDS011;34634;44.108;3.074;2023-01-31T01:38:11;25.02;;;11.88;;
48813;SDS011;34634;44.108;3.074;2023-01-31T01:40:37;27.30;;;12.40;;
48813;SDS011;34634;44.108;3.074;2023-01-31T01:43:04;26.10;;;12.35;;
48813;SDS011;34634;44.108;3.074;2023-01-31T01:45:30;21.85;;;10.18;;
48813;SDS011;34634;44.108;3.074;2023-01-31T01:47:58;16.05;;;8.75;;
48813;SDS011;34634;44.108;3.074;2023-01-31T01:50:29;41.90;;;15.98;;
48813;SDS011;34634;44.108;3.074;2023-01-31T01:52:57;18.33;;;9.40;;
48813;SDS011;34634;44.108;3.074;2023-01-31T01:57:57;16.30;;;8.77;;
48813;SDS011;34634;44.108;3.074;2023-01-31T02:00:26;11.40;;;6.80;;
48813;SDS011;34634;44.108;3.074;2023-01-31T02:02:55;13.48;;;8.15;;
48813;SDS011;34634;44.108;3.074;2023-01-31T02:05:30;15.65;;;8.48;;
48813;SDS011;34634;44.108;3.074;2023-01-31T02:07:57;14.10;;;7.82;;
48813;SDS011;34634;44.108;3.074;2023-01-31T02:12:53;13.75;;;8.13;;
48813;SDS011;34634;44.108;3.074;2023-01-31T02:15:20;14.27;;;8.13;;
48813;SDS011;34634;44.108;3.074;2023-01-31T02:17:47;12.95;;;8.27;;
48813;SDS011;34634;44.108;3.074;2023-01-31T02:25:30;16.08;;;8.00;;
48813;SDS011;34634;44.108;3.074;2023-01-31T02:33:17;15.75;;;8.55;;
48813;SDS011;34634;44.108;3.074;2023-01-31T02:44:00;14.60;;;8.45;;
48813;SDS011;34634;44.108;3.074;2023-01-31T02:46:24;13.20;;;8.25;;
48813;SDS011;34634;44.108;3.074;2023-01-31T02:49:01;15.98;;;8.77;;
48813;SDS011;34634;44.108;3.074;2023-01-31T02:51:31;14.85;;;8.07;;
48813;SDS011;34634;44.108;3.074;2023-01-31T02:54:03;18.02;;;8.65;;
48813;SDS011;34634;44.108;3.074;2023-01-31T02:56:32;16.65;;;7.63;;
48813;SDS011;34634;44.108;3.074;2023-01-31T03:01:42;17.38;;;8.60;;
48813;SDS011;34634;44.108;3.074;2023-01-31T03:04:11;18.10;;;8.45;;
48813;SDS011;34634;44.108;3.074;2023-01-31T03:06:45;14.45;;;7.07;;
48813;SDS011;34634;44.108;3.074;2023-01-31T03:11:51;14.50;;;7.63;;
48813;SDS011;34634;44.108;3.074;2023-01-31T03:16:53;18.38;;;8.35;;
48813;SDS011;34634;44.108;3.074;2023-01-31T03:22:37;15.55;;;7.85;;
48813;SDS011;34634;44.108;3.074;2023-01-31T03:25:05;11.35;;;6.13;;
48813;SDS011;34634;44.108;3.074;2023-01-31T03:27:33;8.45;;;6.03;;
48813;SDS011;34634;44.108;3.074;2023-01-31T03:30:11;10.73;;;6.63;;
48813;SDS011;34634;44.108;3.074;2023-01-31T03:32:41;8.27;;;5.20;;
48813;SDS011;34634;44.108;3.074;2023-01-31T03:35:09;9.63;;;5.35;;
48813;SDS011;34634;44.108;3.074;2023-01-31T03:37:36;10.20;;;6.18;;
48813;SDS011;34634;44.108;3.074;2023-01-31T03:45:24;13.23;;;7.05;;
48813;SDS011;34634;44.108;3.074;2023-01-31T03:47:52;12.98;;;7.35;;
48813;SDS011;34634;44.108;3.074;2023-01-31T03:50:24;11.82;;;7.03;;
48813;SDS011;34634;44.108;3.074;2023-01-31T03:52:57;8.98;;;5.78;;
48813;SDS011;34634;44.108;3.074;2023-01-31T03:55:35;8.20;;;5.65;;
48813;SDS011;34634;44.108;3.074;2023-01-31T03:58:03;9.27;;;5.32;;
48813;SDS011;34634;44.108;3.074;2023-01-31T04:00:30;10.23;;;5.38;;
48813;SDS011;34634;44.108;3.074;2023-01-31T04:03:22;8.00;;;5.25;;
48813;SDS011;34634;44.108;3.074;2023-01-31T04:05:45;7.78;;;4.88;;
48813;SDS011;34634;44.108;3.074;2023-01-31T04:08:13;7.00;;;4.65;;
48813;SDS011;34634;44.108;3.074;2023-01-31T04:10:39;8.90;;;4.68;;
48813;SDS011;34634;44.108;3.074;2023-01-31T04:13:06;7.40;;;4.47;;
48813;SDS011;34634;44.108;3.074;2023-01-31T04:15:33;7.57;;;4.72;;
48813;SDS011;34634;44.108;3.074;2023-01-31T04:17:59;8.40;;;5.43;;
48813;SDS011;34634;44.108;3.074;2023-01-31T04:20:25;13.48;;;7.28;;
48813;SDS011;34634;44.108;3.074;2023-01-31T04:22:52;10.85;;;6.45;;
48813;SDS011;34634;44.108;3.074;2023-01-31T04:25:18;9.70;;;6.03;;
48813;SDS011;34634;44.108;3.074;2023-01-31T04:27:44;12.55;;;6.68;;
48813;SDS011;34634;44.108;3.074;2023-01-31T04:30:11;9.55;;;5.50;;
48813;SDS011;34634;44.108;3.074;2023-01-31T04:32:37;10.13;;;5.88;;
48813;SDS011;34634;44.108;3.074;2023-01-31T04:35:04;10.60;;;6.05;;
48813;SDS011;34634;44.108;3.074;2023-01-31T04:37:30;9.68;;;6.30;;
48813;SDS011;34634;44.108;3.074;2023-01-31T04:39:56;11.25;;;6.32;;
48813;SDS011;34634;44.108;3.074;2023-01-31T04:42:23;12.52;;;6.88;;
48813;SDS011;34634;44.108;3.074;2023-01-31T04:44:49;10.90;;;6.43;;
48813;SDS011;34634;44.108;3.074;2023-01-31T04:47:15;11.68;;;7.15;;
48813;SDS011;34634;44.108;3.074;2023-01-31T04:49:41;18.25;;;10.05;;
48813;SDS011;34634;44.108;3.074;2023-01-31T04:52:08;14.07;;;8.93;;
48813;SDS011;34634;44.108;3.074;2023-01-31T04:54:35;18.42;;;10.23;;
48813;SDS011;34634;44.108;3.074;2023-01-31T04:57:01;27.25;;;13.55;;
48813;SDS011;34634;44.108;3.074;2023-01-31T04:59:28;20.48;;;10.63;;
48813;SDS011;34634;44.108;3.074;2023-01-31T05:01:54;15.63;;;8.63;;
48813;SDS011;34634;44.108;3.074;2023-01-31T05:04:20;13.93;;;7.68;;
48813;SDS011;34634;44.108;3.074;2023-01-31T05:06:48;12.07;;;6.70;;
48813;SDS011;34634;44.108;3.074;2023-01-31T05:09:14;10.07;;;6.32;;
48813;SDS011;34634;44.108;3.074;2023-01-31T05:11:42;10.30;;;6.25;;
48813;SDS011;34634;44.108;3.074;2023-01-31T05:14:08;15.07;;;8.23;;
48813;SDS011;34634;44.108;3.074;2023-01-31T05:16:35;31.67;;;16.25;;
48813;SDS011;34634;44.108;3.074;2023-01-31T05:19:01;19.60;;;10.73;;
48813;SDS011;34634;44.108;3.074;2023-01-31T05:21:28;13.40;;;7.78;;
48813;SDS011;34634;44.108;3.074;2023-01-31T05:23:54;16.35;;;9.00;;
48813;SDS011;34634;44.108;3.074;2023-01-31T05:26:20;15.18;;;9.32;;
48813;SDS011;34634;44.108;3.074;2023-01-31T05:28:46;15.15;;;8.48;;
48813;SDS011;34634;44.108;3.074;2023-01-31T05:31:13;15.05;;;8.40;;
48813;SDS011;34634;44.108;3.074;2023-01-31T05:33:39;18.75;;;9.90;;
48813;SDS011;34634;44.108;3.074;2023-01-31T05:36:05;15.13;;;9.00;;
48813;SDS011;34634;44.108;3.074;2023-01-31T05:38:32;23.48;;;11.68;;
48813;SDS011;34634;44.108;3.074;2023-01-31T05:40:58;17.52;;;9.32;;
48813;SDS011;34634;44.108;3.074;2023-01-31T05:43:24;19.33;;;12.02;;
48813;SDS011;34634;44.108;3.074;2023-01-31T05:45:51;20.92;;;11.70;;
48813;SDS011;34634;44.108;3.074;2023-01-31T05:48:17;17.25;;;9.70;;
48813;SDS011;34634;44.108;3.074;2023-01-31T05:50:43;13.15;;;7.82;;
48813;SDS011;34634;44.108;3.074;2023-01-31T05:53:10;55.10;;;25.95;;
48813;SDS011;34634;44.108;3.074;2023-01-31T05:55:36;24.73;;;13.40;;
48813;SDS011;34634;44.108;3.074;2023-01-31T05:58:02;16.98;;;9.82;;
48813;SDS011;34634;44.108;3.074;2023-01-31T06:00:29;14.02;;;8.13;;
48813;SDS011;34634;44.108;3.074;2023-01-31T06:02:56;15.00;;;8.27;;
48813;SDS011;34634;44.108;3.074;2023-01-31T06:05:22;13.55;;;8.02;;
48813;SDS011;34634;44.108;3.074;2023-01-31T06:07:49;18.05;;;10.27;;
48813;SDS011;34634;44.108;3.074;2023-01-31T06:10:15;17.98;;;9.63;;
48813;SDS011;34634;44.108;3.074;2023-01-31T06:12:42;19.27;;;10.82;;
48813;SDS011;34634;44.108;3.074;2023-01-31T06:15:08;24.23;;;14.10;;
48813;SDS011;34634;44.108;3.074;2023-01-31T06:17:34;18.52;;;10.38;;
48813;SDS011;34634;44.108;3.074;2023-01-31T06:20:01;15.48;;;8.00;;
48813;SDS011;34634;44.108;3.074;2023-01-31T06:22:28;12.07;;;6.57;;
48813;SDS011;34634;44.108;3.074;2023-01-31T06:24:54;13.18;;;7.25;;
48813;SDS011;34634;44.108;3.074;2023-01-31T06:27:20;11.55;;;6.97;;
48813;SDS011;34634;44.108;3.074;2023-01-31T06:29:47;11.70;;;6.68;;
48813;SDS011;34634;44.108;3.074;2023-01-31T06:32:13;11.10;;;7.05;;
48813;SDS011;34634;44.108;3.074;2023-01-31T06:34:39;70.88;;;30.17;;
48813;SDS011;34634;44.108;3.074;2023-01-31T06:37:09;69.38;;;28.05;;
48813;SDS011;34634;44.108;3.074;2023-01-31T06:39:35;35.45;;;17.00;;
48813;SDS011;34634;44.108;3.074;2023-01-31T06:42:02;16.75;;;8.80;;
48813;SDS011;34634;44.108;3.074;2023-01-31T06:44:28;19.42;;;11.77;;
48813;SDS011;34634;44.108;3.074;2023-01-31T06:46:57;17.02;;;10.32;;
48813;SDS011;34634;44.108;3.074;2023-01-31T06:49:24;16.70;;;10.43;;
48813;SDS011;34634;44.108;3.074;2023-01-31T06:51:50;17.10;;;10.23;;
48813;SDS011;34634;44.108;3.074;2023-01-31T06:54:16;13.68;;;8.00;;
48813;SDS011;34634;44.108;3.074;2023-01-31T06:56:43;9.55;;;6.32;;
48813;SDS011;34634;44.108;3.074;2023-01-31T06:59:09;13.30;;;7.40;;
48813;SDS011;34634;44.108;3.074;2023-01-31T07:01:35;14.57;;;7.57;;
48813;SDS011;34634;44.108;3.074;2023-01-31T07:04:01;12.50;;;7.43;;
48813;SDS011;34634;44.108;3.074;2023-01-31T07:06:28;17.00;;;8.88;;
48813;SDS011;34634;44.108;3.074;2023-01-31T07:08:54;14.88;;;8.90;;
48813;SDS011;34634;44.108;3.074;2023-01-31T07:11:20;14.23;;;8.27;;
48813;SDS011;34634;44.108;3.074;2023-01-31T07:13:47;17.00;;;9.48;;
48813;SDS011;34634;44.108;3.074;2023-01-31T07:16:14;16.45;;;9.48;;
48813;SDS011;34634;44.108;3.074;2023-01-31T07:18:41;21.95;;;11.32;;
48813;SDS011;34634;44.108;3.074;2023-01-31T07:21:07;22.55;;;12.15;;
48813;SDS011;34634;44.108;3.074;2023-01-31T07:23:35;23.80;;;12.30;;
48813;SDS011;34634;44.108;3.074;2023-01-31T07:26:02;22.83;;;11.30;;
48813;SDS011;34634;44.108;3.074;2023-01-31T07:28:28;30.52;;;12.32;;
48813;SDS011;34634;44.108;3.074;2023-01-31T08:43:42;15.77;;;9.68;;
48813;SDS011;34634;44.108;3.074;2023-01-31T08:46:08;13.20;;;8.10;;
48813;SDS011;34634;44.108;3.074;2023-01-31T08:48:35;29.88;;;14.60;;
48813;SDS011;34634;44.108;3.074;2023-01-31T08:51:02;25.58;;;14.05;;
48813;SDS011;34634;44.108;3.074;2023-01-31T08:53:29;23.70;;;13.52;;
48813;SDS011;34634;44.108;3.074;2023-01-31T08:56:03;35.83;;;14.95;;
48813;SDS011;34634;44.108;3.074;2023-01-31T08:58:36;29.83;;;14.45;;
48813;SDS011;34634;44.108;3.074;2023-01-31T09:01:03;34.45;;;18.50;;
48813;SDS011;34634;44.108;3.074;2023-01-31T09:03:30;39.10;;;20.05;;
48813;SDS011;34634;44.108;3.074;2023-01-31T09:05:59;80.00;;;33.17;;
48813;SDS011;34634;44.108;3.074;2023-01-31T09:08:26;57.28;;;26.67;;
48813;SDS011;34634;44.108;3.074;2023-01-31T09:10:52;54.63;;;24.75;;
48813;SDS011;34634;44.108;3.074;2023-01-31T09:13:19;42.30;;;21.20;;
48813;SDS011;34634;44.108;3.074;2023-01-31T09:15:46;34.33;;;18.08;;
48813;SDS011;34634;44.108;3.074;2023-01-31T09:18:12;25.50;;;14.32;;
48813;SDS011;34634;44.108;3.074;2023-01-31T09:20:39;24.98;;;11.85;;
48813;SDS011;34634;44.108;3.074;2023-01-31T09:23:05;26.52;;;13.40;;
48813;SDS011;34634;44.108;3.074;2023-01-31T09:25:31;17.10;;;11.30;;
48813;SDS011;34634;44.108;3.074;2023-01-31T09:27:58;22.73;;;11.65;;
48813;SDS011;34634;44.108;3.074;2023-01-31T09:30:24;21.48;;;10.20;;
48813;SDS011;34634;44.108;3.074;2023-01-31T09:32:50;21.60;;;8.93;;
48813;SDS011;34634;44.108;3.074;2023-01-31T09:35:17;10.40;;;7.22;;
48813;SDS011;34634;44.108;3.074;2023-01-31T09:37:45;9.20;;;7.40;;
48813;SDS011;34634;44.108;3.074;2023-01-31T09:40:15;12.52;;;7.70;;
48813;SDS011;34634;44.108;3.074;2023-01-31T09:42:43;14.55;;;6.30;;
48813;SDS011;34634;44.108;3.074;2023-01-31T09:45:12;9.43;;;5.95;;
48813;SDS011;34634;44.108;3.074;2023-01-31T09:47:42;7.97;;;6.03;;
48813;SDS011;34634;44.108;3.074;2023-01-31T09:52:39;10.32;;;5.68;;
48813;SDS011;34634;44.108;3.074;2023-01-31T09:55:09;7.80;;;5.50;;
48813;SDS011;34634;44.108;3.074;2023-01-31T09:57:43;10.52;;;5.63;;
48813;SDS011;34634;44.108;3.074;2023-01-31T10:00:21;14.90;;;5.88;;
48813;SDS011;34634;44.108;3.074;2023-01-31T10:08:08;7.43;;;5.50;;
48813;SDS011;34634;44.108;3.074;2023-01-31T10:10:36;9.55;;;4.63;;
48813;SDS011;34634;44.108;3.074;2023-01-31T10:15:53;4.40;;;3.15;;
48813;SDS011;34634;44.108;3.074;2023-01-31T10:18:25;10.25;;;4.00;;
48813;SDS011;34634;44.108;3.074;2023-01-31T10:20:53;47.08;;;19.40;;
48813;SDS011;34634;44.108;3.074;2023-01-31T10:23:32;6.95;;;3.97;;
48813;SDS011;34634;44.108;3.074;2023-01-31T10:26:18;8.48;;;4.65;;
48813;SDS011;34634;44.108;3.074;2023-01-31T10:28:50;8.63;;;3.97;;
48813;SDS011;34634;44.108;3.074;2023-01-31T10:36:24;5.90;;;3.60;;
48813;SDS011;34634;44.108;3.074;2023-01-31T10:41:35;12.50;;;8.00;;
48813;SDS011;34634;44.108;3.074;2023-01-31T10:44:05;7.93;;;4.30;;
48813;SDS011;34634;44.108;3.074;2023-01-31T10:46:32;33.15;;;16.40;;
48813;SDS011;34634;44.108;3.074;2023-01-31T10:48:58;46.97;;;23.48;;
48813;SDS011;34634;44.108;3.074;2023-01-31T10:51:45;11.32;;;4.43;;
48813;SDS011;34634;44.108;3.074;2023-01-31T10:56:44;21.80;;;9.48;;
48813;SDS011;34634;44.108;3.074;2023-01-31T10:59:18;48.60;;;22.85;;
48813;SDS011;34634;44.108;3.074;2023-01-31T11:01:48;16.02;;;6.43;;
48813;SDS011;34634;44.108;3.074;2023-01-31T11:06:50;6.20;;;2.22;;
48813;SDS011;34634;44.108;3.074;2023-01-31T11:09:17;2.22;;;1.65;;
48813;SDS011;34634;44.108;3.074;2023-01-31T11:11:57;5.47;;;1.70;;
48813;SDS011;34634;44.108;3.074;2023-01-31T11:14:23;2.45;;;1.48;;
48813;SDS011;34634;44.108;3.074;2023-01-31T11:16:55;4.32;;;1.42;;
48813;SDS011;34634;44.108;3.074;2023-01-31T11:19:31;2.83;;;1.80;;
48813;SDS011;34634;44.108;3.074;2023-01-31T11:21:58;4.80;;;2.25;;
48813;SDS011;34634;44.108;3.074;2023-01-31T11:24:26;10.95;;;5.22;;
48813;SDS011;34634;44.108;3.074;2023-01-31T11:26:54;5.75;;;2.10;;
48813;SDS011;34634;44.108;3.074;2023-01-31T11:29:28;4.55;;;2.08;;
48813;SDS011;34634;44.108;3.074;2023-01-31T11:31:55;5.30;;;1.80;;
48813;SDS011;34634;44.108;3.074;2023-01-31T11:34:24;4.25;;;2.60;;
48813;SDS011;34634;44.108;3.074;2023-01-31T11:36:51;3.97;;;2.00;;
48813;SDS011;34634;44.108;3.074;2023-01-31T11:39:30;3.92;;;2.42;;
48813;SDS011;34634;44.108;3.074;2023-01-31T11:42:04;6.35;;;2.10;;
48813;SDS011;34634;44.108;3.074;2023-01-31T11:44:30;4.35;;;2.50;;
48813;SDS011;34634;44.108;3.074;2023-01-31T11:49:40;2.78;;;1.75;;
48813;SDS011;34634;44.108;3.074;2023-01-31T11:52:15;6.10;;;1.90;;
48813;SDS011;34634;44.108;3.074;2023-01-31T11:54:46;3.70;;;1.70;;
48813;SDS011;34634;44.108;3.074;2023-01-31T11:57:14;3.53;;;1.80;;
48813;SDS011;34634;44.108;3.074;2023-01-31T11:59:41;1.40;;;1.25;;
48813;SDS011;34634;44.108;3.074;2023-01-31T12:02:13;2.88;;;1.55;;
48813;SDS011;34634;44.108;3.074;2023-01-31T12:04:47;2.88;;;1.42;;
48813;SDS011;34634;44.108;3.074;2023-01-31T12:07:26;3.10;;;1.75;;
48813;SDS011;34634;44.108;3.074;2023-01-31T12:09:54;3.28;;;1.90;;
48813;SDS011;34634;44.108;3.074;2023-01-31T12:12:22;3.38;;;2.10;;
48813;SDS011;34634;44.108;3.074;2023-01-31T12:14:49;2.53;;;1.58;;
48813;SDS011;34634;44.108;3.074;2023-01-31T12:17:16;2.40;;;1.80;;
48813;SDS011;34634;44.108;3.074;2023-01-31T12:22:40;3.78;;;1.70;;
48813;SDS011;34634;44.108;3.074;2023-01-31T12:25:12;2.87;;;1.63;;
48813;SDS011;34634;44.108;3.074;2023-01-31T12:42:58;3.38;;;1.90;;
48813;SDS011;34634;44.108;3.074;2023-01-31T13:05:45;4.20;;;2.33;;
48813;SDS011;34634;44.108;3.074;2023-01-31T13:08:17;3.65;;;2.30;;
48813;SDS011;34634;44.108;3.074;2023-01-31T13:13:14;4.38;;;2.40;;
48813;SDS011;34634;44.108;3.074;2023-01-31T13:18:26;4.90;;;2.45;;
48813;SDS011;34634;44.108;3.074;2023-01-31T13:20:54;7.22;;;2.60;;
48813;SDS011;34634;44.108;3.074;2023-01-31T13:23:26;7.13;;;2.55;;
48813;SDS011;34634;44.108;3.074;2023-01-31T13:26:12;3.85;;;2.03;;
48813;SDS011;34634;44.108;3.074;2023-01-31T13:31:18;4.10;;;1.98;;
48813;SDS011;34634;44.108;3.074;2023-01-31T13:33:46;3.22;;;2.13;;
48813;SDS011;34634;44.108;3.074;2023-01-31T13:38:42;3.03;;;2.20;;
48813;SDS011;34634;44.108;3.074;2023-01-31T13:43:51;4.13;;;2.00;;
48813;SDS011;34634;44.108;3.074;2023-01-31T13:46:19;4.75;;;2.45;;
48813;SDS011;34634;44.108;3.074;2023-01-31T13:48:51;4.88;;;2.40;;
48813;SDS011;34634;44.108;3.074;2023-01-31T13:56:31;4.20;;;2.60;;
48813;SDS011;34634;44.108;3.074;2023-01-31T13:58:58;3.92;;;2.38;;
48813;SDS011;34634;44.108;3.074;2023-01-31T14:01:30;2.90;;;2.35;;
48813;SDS011;34634;44.108;3.074;2023-01-31T14:11:55;3.22;;;2.35;;
48813;SDS011;34634;44.108;3.074;2023-01-31T14:17:13;4.78;;;2.30;;
48813;SDS011;34634;44.108;3.074;2023-01-31T14:20:00;5.05;;;3.30;;
48813;SDS011;34634;44.108;3.074;2023-01-31T14:22:35;4.95;;;4.28;;
48813;SDS011;34634;44.108;3.074;2023-01-31T14:27:39;4.35;;;2.92;;
48813;SDS011;34634;44.108;3.074;2023-01-31T14:32:40;3.60;;;2.72;;
48813;SDS011;34634;44.108;3.074;2023-01-31T14:37:55;6.25;;;3.03;;
48813;SDS011;34634;44.108;3.074;2023-01-31T14:46:26;4.18;;;2.60;;
48813;SDS011;34634;44.108;3.074;2023-01-31T14:51:09;3.67;;;2.70;;
48813;SDS011;34634;44.108;3.074;2023-01-31T14:53:52;5.22;;;2.22;;
48813;SDS011;34634;44.108;3.074;2023-01-31T14:58:52;12.15;;;5.32;;
48813;SDS011;34634;44.108;3.074;2023-01-31T15:01:19;5.38;;;3.10;;
48813;SDS011;34634;44.108;3.074;2023-01-31T15:06:26;3.58;;;2.80;;
48813;SDS011;34634;44.108;3.074;2023-01-31T15:11:42;3.30;;;2.65;;
48813;SDS011;34634;44.108;3.074;2023-01-31T15:17:01;6.50;;;2.80;;
48813;SDS011;34634;44.108;3.074;2023-01-31T15:19:29;5.05;;;2.58;;
48813;SDS011;34634;44.108;3.074;2023-01-31T15:22:02;3.08;;;2.72;;
48813;SDS011;34634;44.108;3.074;2023-01-31T15:24:34;4.53;;;2.30;;
48813;SDS011;34634;44.108;3.074;2023-01-31T15:27:03;3.13;;;2.03;;
48813;SDS011;34634;44.108;3.074;2023-01-31T15:29:33;3.08;;;2.58;;
48813;SDS011;34634;44.108;3.074;2023-01-31T15:32:05;3.93;;;1.90;;
48813;SDS011;34634;44.108;3.074;2023-01-31T15:34:43;2.92;;;2.20;;
48813;SDS011;34634;44.108;3.074;2023-01-31T15:37:19;3.90;;;2.80;;
48813;SDS011;34634;44.108;3.074;2023-01-31T15:42:22;4.65;;;2.03;;
48813;SDS011;34634;44.108;3.074;2023-01-31T15:44:48;6.07;;;3.20;;
48813;SDS011;34634;44.108;3.074;2023-01-31T15:47:19;3.13;;;2.53;;
48813;SDS011;34634;44.108;3.074;2023-01-31T15:49:46;4.88;;;2.78;;
48813;SDS011;34634;44.108;3.074;2023-01-31T15:54:38;5.57;;;2.72;;
48813;SDS011;34634;44.108;3.074;2023-01-31T15:57:08;6.07;;;2.63;;
48813;SDS011;34634;44.108;3.074;2023-01-31T15:59:36;3.85;;;2.83;;
48813;SDS011;34634;44.108;3.074;2023-01-31T16:02:03;6.30;;;3.85;;
48813;SDS011;34634;44.108;3.074;2023-01-31T16:04:29;4.25;;;2.83;;
48813;SDS011;34634;44.108;3.074;2023-01-31T16:06:57;2.88;;;2.38;;
48813;SDS011;34634;44.108;3.074;2023-01-31T16:09:32;4.38;;;2.78;;
48813;SDS011;34634;44.108;3.074;2023-01-31T16:11:59;2.70;;;2.45;;
48813;SDS011;34634;44.108;3.074;2023-01-31T16:14:26;3.10;;;2.30;;
48813;SDS011;34634;44.108;3.074;2023-01-31T16:16:54;6.13;;;2.60;;
48813;SDS011;34634;44.108;3.074;2023-01-31T16:19:23;3.72;;;2.90;;
48813;SDS011;34634;44.108;3.074;2023-01-31T16:21:50;7.00;;;2.72;;
48813;SDS011;34634;44.108;3.074;2023-01-31T16:24:18;5.45;;;2.47;;
48813;SDS011;34634;44.108;3.074;2023-01-31T16:27:06;4.57;;;2.92;;
48813;SDS011;34634;44.108;3.074;2023-01-31T16:29:37;3.60;;;2.53;;
48813;SDS011;34634;44.108;3.074;2023-01-31T16:32:09;4.20;;;2.60;;
48813;SDS011;34634;44.108;3.074;2023-01-31T16:34:38;3.78;;;2.28;;
48813;SDS011;34634;44.108;3.074;2023-01-31T16:37:05;4.75;;;2.72;;
48813;SDS011;34634;44.108;3.074;2023-01-31T16:39:35;2.47;;;2.00;;
48813;SDS011;34634;44.108;3.074;2023-01-31T16:42:04;5.97;;;3.08;;
48813;SDS011;34634;44.108;3.074;2023-01-31T16:44:32;5.30;;;2.85;;
48813;SDS011;34634;44.108;3.074;2023-01-31T16:46:59;15.02;;;8.07;;
48813;SDS011;34634;44.108;3.074;2023-01-31T16:49:30;6.40;;;4.22;;
48813;SDS011;34634;44.108;3.074;2023-01-31T16:51:57;7.32;;;3.88;;
48813;SDS011;34634;44.108;3.074;2023-01-31T16:54:43;4.22;;;2.33;;
48813;SDS011;34634;44.108;3.074;2023-01-31T16:59:59;6.88;;;3.75;;
48813;SDS011;34634;44.108;3.074;2023-01-31T17:02:26;5.05;;;3.00;;
48813;SDS011;34634;44.108;3.074;2023-01-31T17:04:58;29.92;;;9.65;;
48813;SDS011;34634;44.108;3.074;2023-01-31T17:07:29;20.13;;;7.32;;
48813;SDS011;34634;44.108;3.074;2023-01-31T17:12:23;17.60;;;8.80;;
48813;SDS011;34634;44.108;3.074;2023-01-31T17:14:50;19.85;;;9.40;;
48813;SDS011;34634;44.108;3.074;2023-01-31T17:17:22;14.82;;;7.65;;
48813;SDS011;34634;44.108;3.074;2023-01-31T17:19:48;8.65;;;5.38;;
48813;SDS011;34634;44.108;3.074;2023-01-31T17:22:14;8.82;;;6.13;;
48813;SDS011;34634;44.108;3.074;2023-01-31T17:24:41;10.07;;;6.32;;
48813;SDS011;34634;44.108;3.074;2023-01-31T17:27:10;13.20;;;8.20;;
48813;SDS011;34634;44.108;3.074;2023-01-31T17:29:38;12.40;;;7.68;;
48813;SDS011;34634;44.108;3.074;2023-01-31T17:32:04;11.82;;;7.28;;
48813;SDS011;34634;44.108;3.074;2023-01-31T17:34:30;8.50;;;5.10;;
48813;SDS011;34634;44.108;3.074;2023-01-31T17:36:57;14.68;;;8.25;;
48813;SDS011;34634;44.108;3.074;2023-01-31T17:39:24;21.17;;;11.38;;
48813;SDS011;34634;44.108;3.074;2023-01-31T17:41:50;28.25;;;16.17;;
48813;SDS011;34634;44.108;3.074;2023-01-31T17:44:16;19.10;;;11.52;;
48813;SDS011;34634;44.108;3.074;2023-01-31T17:46:43;20.15;;;12.45;;
48813;SDS011;34634;44.108;3.074;2023-01-31T17:49:09;22.40;;;10.57;;
48813;SDS011;34634;44.108;3.074;2023-01-31T17:51:39;18.30;;;9.07;;
48813;SDS011;34634;44.108;3.074;2023-01-31T17:54:05;14.13;;;8.07;;
48813;SDS011;34634;44.108;3.074;2023-01-31T17:56:31;8.02;;;4.85;;
48813;SDS011;34634;44.108;3.074;2023-01-31T17:58:58;11.02;;;5.80;;
48813;SDS011;34634;44.108;3.074;2023-01-31T18:01:24;13.73;;;7.22;;
48813;SDS011;34634;44.108;3.074;2023-01-31T18:03:51;10.88;;;6.28;;
48813;SDS011;34634;44.108;3.074;2023-01-31T18:06:17;12.13;;;6.82;;
48813;SDS011;34634;44.108;3.074;2023-01-31T18:08:43;11.85;;;6.40;;
48813;SDS011;34634;44.108;3.074;2023-01-31T18:11:11;8.27;;;5.10;;
48813;SDS011;34634;44.108;3.074;2023-01-31T18:13:41;6.75;;;4.57;;
48813;SDS011;34634;44.108;3.074;2023-01-31T18:16:15;10.38;;;6.32;;
48813;SDS011;34634;44.108;3.074;2023-01-31T18:18:42;16.08;;;6.97;;
48813;SDS011;34634;44.108;3.074;2023-01-31T18:21:13;13.63;;;6.50;;
48813;SDS011;34634;44.108;3.074;2023-01-31T18:23:39;10.60;;;5.93;;
48813;SDS011;34634;44.108;3.074;2023-01-31T18:26:06;12.75;;;7.28;;
48813;SDS011;34634;44.108;3.074;2023-01-31T18:28:33;12.85;;;7.50;;
48813;SDS011;34634;44.108;3.074;2023-01-31T18:31:00;13.98;;;5.95;;
48813;SDS011;34634;44.108;3.074;2023-01-31T18:33:27;9.68;;;6.13;;
48813;SDS011;34634;44.108;3.074;2023-01-31T18:35:56;9.57;;;6.18;;
48813;SDS011;34634;44.108;3.074;2023-01-31T18:38:23;8.95;;;5.93;;
48813;SDS011;34634;44.108;3.074;2023-01-31T18:40:49;8.73;;;5.68;;
48813;SDS011;34634;44.108;3.074;2023-01-31T18:43:17;11.00;;;7.13;;
48813;SDS011;34634;44.108;3.074;2023-01-31T18:45:43;16.05;;;9.27;;